Time;durP1;ratioP1;P1;durP2;ratioP2;P2;SDS_P1;SDS_P2;PMS_P1;PMS_P2;Temp;Humidity;BMP_temperature;BMP_pressure;BME280_temperature;BME280_humidity;BME280_pressure;Samples;Min_cycle;Max_cycle;Signal;HPM_P1;HPM_P2
2023/11/24 00:02:02;;;;;;;24.65;3.67;;;10.00;99.90;;;10.08;86.95;100222.28;5002894;28;20064;-84
2023/11/24 00:04:29;;;;;;;22.05;3.63;;;10.00;99.90;;;10.10;86.31;100219.38;5001893;28;20038;-85
2023/11/24 00:06:57;;;;;;;34.97;4.80;;;10.10;99.90;;;10.11;86.19;100224.53;5002717;28;20103;-85
2023/11/24 00:09:29;;;;;;;24.30;3.83;;;10.10;99.90;;;10.11;83.92;100226.38;5020270;28;20571;-85
2023/11/24 00:12:00;;;;;;;20.45;3.75;;;10.00;99.90;;;9.92;81.57;100228.94;4986026;28;20038;-84
2023/11/24 00:14:28;;;;;;;23.70;4.35;;;10.00;99.90;;;9.98;82.45;100244.06;4971445;28;20049;-85
2023/11/24 00:16:56;;;;;;;22.48;3.75;;;10.00;99.90;;;9.93;80.94;100238.53;5002524;28;20050;-84
2023/11/24 00:19:25;;;;;;;17.38;3.05;;;10.00;99.90;;;9.90;79.92;100238.97;5020588;28;20042;-85
2023/11/24 00:21:52;;;;;;;15.05;2.75;;;9.90;99.90;;;9.89;79.86;100255.97;5003038;28;20572;-84
2023/11/24 00:24:20;;;;;;;21.83;3.30;;;9.90;99.90;;;9.91;79.80;100261.94;4986282;28;20579;-84
2023/11/24 00:26:48;;;;;;;15.25;2.85;;;9.80;99.90;;;9.87;78.44;100273.22;4986801;28;20053;-85
2023/11/24 00:29:17;;;;;;;14.75;3.30;;;9.80;99.90;;;9.80;77.92;100268.72;5019629;28;20505;-84
2023/11/24 00:31:45;;;;;;;17.98;2.75;;;9.70;99.90;;;9.79;76.18;100272.41;5002047;28;20038;-84
2023/11/24 00:34:14;;;;;;;12.98;2.67;;;9.70;99.90;;;9.83;78.48;100261.34;4986364;28;20100;-84
2023/11/24 00:36:43;;;;;;;17.23;2.60;;;9.70;99.90;;;9.78;77.42;100259.31;5014448;28;20064;-85
2023/11/24 00:39:13;;;;;;;14.57;2.60;;;9.60;99.90;;;9.80;77.88;100260.72;5022356;28;20135;-85
2023/11/24 00:41:43;;;;;;;16.83;3.53;;;9.60;99.90;;;9.71;74.18;100275.31;5009602;28;20046;-84
2023/11/24 00:44:11;;;;;;;17.83;3.22;;;9.60;99.90;;;9.70;74.46;100272.84;5002965;28;20050;-84
2023/11/24 00:46:40;;;;;;;14.38;2.47;;;9.50;99.90;;;9.65;74.64;100268.16;5002853;28;20128;-84
2023/11/24 00:49:08;;;;;;;15.48;2.83;;;9.50;99.90;;;9.69;76.08;100266.72;4986615;28;20053;-84
2023/11/24 00:51:36;;;;;;;13.15;2.20;;;9.60;99.90;;;9.79;77.36;100285.72;4987216;28;20173;-84
2023/11/24 00:54:04;;;;;;;15.93;2.80;;;9.60;99.90;;;9.77;75.95;100279.00;5002500;28;20041;-84
2023/11/24 00:56:31;;;;;;;11.95;2.78;;;9.60;99.90;;;9.77;76.28;100279.81;4986480;28;20042;-84
2023/11/24 00:58:59;;;;;;;15.07;3.03;;;9.60;99.90;;;9.63;73.92;100288.84;5020327;28;20041;-85
2023/11/24 01:01:27;;;;;;;16.42;2.65;;;9.50;99.90;;;9.38;72.02;100269.28;5019689;28;20049;-84
2023/11/24 01:03:58;;;;;;;11.07;2.22;;;9.30;99.90;;;9.39;74.95;100284.22;5003424;28;20071;-84
2023/11/24 01:06:26;;;;;;;13.93;2.50;;;9.30;99.90;;;9.26;70.75;100296.50;4987331;28;20113;-84
2023/11/24 01:08:54;;;;;;;13.10;2.42;;;9.20;99.90;;;9.33;74.05;100298.34;5003367;28;20480;-84
2023/11/24 01:11:22;;;;;;;9.65;2.22;;;9.20;99.90;;;9.40;75.52;100283.19;4986683;28;20056;-84
2023/11/24 01:13:49;;;;;;;13.93;3.03;;;9.20;99.90;;;9.38;75.09;100278.06;5003238;28;20049;-85
2023/11/24 01:16:17;;;;;;;10.13;2.10;;;9.20;99.90;;;9.28;74.86;100259.06;4986550;28;20178;-84
2023/11/24 01:18:45;;;;;;;12.65;2.45;;;9.20;99.90;;;9.23;75.11;100242.91;5002794;28;20046;-84
2023/11/24 01:21:17;;;;;;;10.75;2.20;;;9.10;99.90;;;9.28;75.91;100265.19;5003026;28;20046;-84
2023/11/24 01:23:45;;;;;;;9.88;2.05;;;9.10;99.90;;;9.35;76.16;100261.69;5017863;28;20058;-84
2023/11/24 01:26:15;;;;;;;10.63;1.90;;;9.10;99.90;;;9.27;74.64;100242.28;5002954;28;20073;-84
2023/11/24 01:28:43;;;;;;;12.57;2.22;;;9.00;99.90;;;9.28;74.98;100249.22;4987099;28;20050;-84
2023/11/24 01:31:12;;;;;;;9.38;2.00;;;9.10;99.90;;;9.35;75.20;100240.41;4987040;28;20049;-84
2023/11/24 01:33:39;;;;;;;10.73;2.55;;;9.10;99.90;;;9.38;75.81;100245.31;5020015;28;20086;-85
2023/11/24 01:36:07;;;;;;;16.70;2.97;;;9.10;99.90;;;9.30;73.70;100241.03;5002872;28;20053;-84
2023/11/24 01:38:36;;;;;;;8.43;1.80;;;9.10;99.90;;;9.31;72.92;100245.31;5002888;28;20042;-84
2023/11/24 01:41:04;;;;;;;12.68;1.85;;;9.10;99.90;;;9.26;73.09;100251.25;5020321;28;20104;-84
2023/11/24 01:43:32;;;;;;;10.90;2.38;;;9.00;99.90;;;9.26;73.06;100243.28;5019262;28;20073;-84
2023/11/24 01:46:00;;;;;;;10.55;1.50;;;9.00;99.90;;;9.27;73.14;100242.28;5002461;28;20042;-84
2023/11/24 01:48:29;;;;;;;15.23;2.80;;;9.00;99.90;;;9.22;72.13;100238.56;4986747;28;20536;-84
2023/11/24 01:50:57;;;;;;;9.25;1.85;;;9.00;99.90;;;9.29;72.74;100239.41;5003060;28;20061;-84
2023/11/24 01:53:25;;;;;;;9.43;1.67;;;9.00;99.90;;;9.26;71.91;100245.94;5002655;28;20116;-84
2023/11/24 01:55:55;;;;;;;7.22;1.33;;;9.00;99.90;;;9.26;71.45;100240.63;5002541;28;20081;-84
2023/11/24 01:58:23;;;;;;;9.45;1.77;;;9.00;99.90;;;9.27;71.81;100241.44;5002870;28;20057;-84
2023/11/24 02:00:51;;;;;;;11.27;1.52;;;9.00;99.90;;;9.26;72.28;100224.66;5003042;28;20062;-84
2023/11/24 02:03:20;;;;;;;5.25;1.27;;;9.00;99.90;;;9.27;72.88;100230.78;5002234;28;20052;-84
2023/11/24 02:05:48;;;;;;;9.50;1.38;;;9.00;99.90;;;9.28;72.74;100227.94;5002843;28;20050;-84
2023/11/24 02:08:16;;;;;;;8.50;1.80;;;9.00;99.90;;;9.31;72.90;100229.34;5003410;28;20038;-84
2023/11/24 02:10:45;;;;;;;17.63;2.13;;;9.00;99.90;;;9.31;73.09;100234.66;5003186;28;20034;-84
2023/11/24 02:13:14;;;;;;;7.60;1.40;;;9.00;99.90;;;9.27;72.70;100226.31;5001564;28;20129;-84
2023/11/24 02:15:42;;;;;;;11.05;1.42;;;8.90;99.90;;;9.14;71.33;100215.69;5018138;28;20469;-84
2023/11/24 02:18:12;;;;;;;7.88;1.42;;;8.80;99.90;;;9.14;72.33;100215.69;5018595;28;20501;-84
2023/11/24 02:20:39;;;;;;;8.50;1.58;;;8.80;99.90;;;9.14;72.35;100207.72;5019122;28;20042;-84
2023/11/24 02:23:08;;;;;;;10.70;1.90;;;8.80;99.90;;;9.15;71.63;100203.19;5018638;28;20046;-84
2023/11/24 02:25:36;;;;;;;9.23;1.60;;;8.80;99.90;;;9.12;70.56;100201.75;4985258;28;20057;-84
2023/11/24 02:28:05;;;;;;;8.40;1.63;;;8.80;99.90;;;9.07;70.87;100200.75;4987949;28;20104;-84
2023/11/24 02:30:32;;;;;;;15.88;2.17;;;8.80;99.90;;;9.07;71.39;100206.88;5021225;28;20046;-84
2023/11/24 02:33:00;;;;;;;6.90;1.80;;;8.70;99.90;;;9.08;71.89;100199.72;5021704;28;20049;-84
2023/11/24 02:35:29;;;;;;;9.63;1.80;;;8.70;99.90;;;9.09;71.65;100199.53;5003499;28;20088;-84
2023/11/24 02:37:56;;;;;;;9.77;1.77;;;8.80;99.90;;;9.09;71.65;100202.19;5003797;28;20046;-84
2023/11/24 02:40:26;;;;;;;9.18;1.95;;;8.70;99.90;;;9.07;71.69;100201.56;4987715;28;20540;-84
2023/11/24 02:42:53;;;;;;;8.50;1.48;;;8.70;99.90;;;9.04;71.72;100204.66;5003858;28;20086;-84
2023/11/24 02:45:21;;;;;;;10.25;1.90;;;8.70;99.90;;;9.01;71.27;100197.91;5004367;28;20041;-84
2023/11/24 02:47:49;;;;;;;11.60;2.50;;;8.60;99.90;;;8.99;71.54;100205.28;4987473;28;20077;-84
2023/11/24 02:50:18;;;;;;;11.95;2.47;;;8.60;99.90;;;9.00;71.97;100201.59;4988708;28;20050;-84
2023/11/24 02:52:45;;;;;;;19.17;2.65;;;8.60;99.90;;;8.99;72.53;100186.66;5003796;28;20034;-84
2023/11/24 02:55:14;;;;;;;9.05;2.72;;;8.70;99.90;;;9.00;72.60;100182.16;4987733;28;20476;-84
2023/11/24 02:57:44;;;;;;;16.05;3.35;;;8.60;99.90;;;9.01;72.08;100184.59;5003033;28;20038;-84
2023/11/24 03:00:14;;;;;;;13.73;2.97;;;8.60;99.90;;;8.96;72.11;100191.56;5021667;28;20037;-84
2023/11/24 03:02:42;;;;;;;14.57;2.78;;;8.60;99.90;;;8.96;72.77;100191.56;5004282;28;20057;-84
2023/11/24 03:05:11;;;;;;;10.98;2.45;;;8.60;99.90;;;8.97;72.66;100182.56;5004479;28;20054;-84
2023/11/24 03:07:38;;;;;;;12.60;2.55;;;8.60;99.90;;;8.97;73.05;100182.56;5003977;28;20058;-84
2023/11/24 03:10:08;;;;;;;15.73;2.38;;;8.60;99.90;;;8.98;73.02;100162.94;5003910;28;20065;-84
2023/11/24 03:12:37;;;;;;;17.80;2.75;;;8.60;99.90;;;8.97;73.08;100169.25;5002795;28;20421;-84
2023/11/24 03:15:11;;;;;;;14.35;2.20;;;8.60;99.90;;;8.99;73.18;100159.25;5021763;28;20097;-84
2023/11/24 03:17:38;;;;;;;13.18;2.10;;;8.60;99.90;;;8.96;73.21;100154.34;5003570;28;20050;-84
2023/11/24 03:20:07;;;;;;;13.13;2.05;;;8.60;99.90;;;8.97;73.65;100150.66;5003973;28;20048;-84
2023/11/24 03:22:34;;;;;;;18.50;2.35;;;8.60;99.90;;;8.94;72.98;100143.91;5021039;28;20064;-84
2023/11/24 03:25:03;;;;;;;16.92;2.20;;;8.60;99.90;;;8.94;73.10;100141.25;5003960;28;20073;-84
2023/11/24 03:27:32;;;;;;;13.75;2.33;;;8.60;99.90;;;8.92;73.72;100147.78;5003750;28;20076;-84
2023/11/24 03:30:00;;;;;;;14.25;2.53;;;8.60;99.90;;;8.91;73.40;100144.31;5021145;28;20091;-84
2023/11/24 03:32:30;;;;;;;17.20;2.70;;;8.60;99.90;;;8.93;73.32;100136.13;4970960;28;20141;-84
2023/11/24 03:34:57;;;;;;;14.13;3.10;;;8.60;99.90;;;8.92;73.48;100143.28;5002807;28;20085;-84
2023/11/24 03:37:27;;;;;;;14.32;3.22;;;8.60;99.90;;;8.92;73.74;100135.31;4987934;28;20041;-84
2023/11/24 03:39:54;;;;;;;15.35;2.35;;;8.60;99.90;;;8.91;73.67;100135.53;5021336;28;20041;-84
2023/11/24 03:42:22;;;;;;;16.33;2.60;;;8.60;99.90;;;8.95;74.06;100142.88;5003373;28;20034;-84
2023/11/24 03:44:50;;;;;;;12.48;2.20;;;8.60;99.90;;;8.91;73.61;100139.00;5002859;28;20045;-84
2023/11/24 03:47:18;;;;;;;13.00;2.50;;;8.60;99.90;;;8.92;74.06;100137.97;5002383;28;20076;-84
2023/11/24 03:49:47;;;;;;;12.60;2.47;;;8.60;99.90;;;8.95;74.31;100139.41;5002278;28;20555;-84
2023/11/24 03:52:15;;;;;;;12.38;2.58;;;8.60;99.90;;;8.90;73.90;100139.22;5003050;28;20121;-84
2023/11/24 03:54:44;;;;;;;14.27;2.67;;;8.60;99.90;;;8.91;74.23;100140.84;5002584;28;20045;-84
2023/11/24 03:57:11;;;;;;;17.63;3.13;;;8.60;99.90;;;8.90;74.18;100139.22;4986525;28;20038;-84
2023/11/24 03:59:40;;;;;;;13.45;3.00;;;8.60;99.90;;;8.92;74.20;100134.50;5020674;28;20042;-84
2023/11/24 04:02:07;;;;;;;15.32;2.75;;;8.60;99.90;;;8.89;74.11;100129.63;5002691;28;20054;-84
2023/11/24 04:04:35;;;;;;;15.88;2.60;;;8.60;99.90;;;8.84;73.83;100132.09;4986605;28;20042;-84
2023/11/24 04:07:05;;;;;;;20.38;3.47;;;8.60;99.90;;;8.85;74.16;100136.38;5020341;28;20505;-84
2023/11/24 04:09:32;;;;;;;15.35;2.70;;;8.60;99.90;;;8.87;74.14;100123.66;4987234;28;20045;-84
2023/11/24 04:12:00;;;;;;;14.68;3.28;;;8.60;99.90;;;8.87;74.35;100132.47;4986800;28;20163;-84
2023/11/24 04:14:28;;;;;;;12.75;2.60;;;8.60;99.90;;;8.86;74.26;100128.19;5018539;28;20112;-84
2023/11/24 04:16:55;;;;;;;19.38;3.08;;;8.60;99.90;;;8.83;73.95;100120.59;5018979;28;20042;-84
2023/11/24 04:19:23;;;;;;;13.35;2.60;;;8.70;99.90;;;8.82;73.34;100126.13;4986871;28;20133;-84
2023/11/24 04:21:51;;;;;;;13.13;2.47;;;8.60;99.90;;;8.84;74.07;100118.78;5022074;28;20056;-84
2023/11/24 04:24:20;;;;;;;16.70;2.35;;;8.70;99.90;;;8.84;73.75;100116.13;5004138;28;20049;-84
2023/11/24 04:26:49;;;;;;;19.42;2.70;;;8.60;99.90;;;8.88;74.15;100115.50;4987922;28;20046;-84
2023/11/24 04:29:17;;;;;;;11.32;2.45;;;8.70;99.90;;;8.87;73.62;100113.03;5022088;28;20092;-84
2023/11/24 04:31:45;;;;;;;13.00;2.70;;;8.70;99.90;;;8.85;73.82;100104.47;5004267;28;20045;-84
2023/11/24 04:34:13;;;;;;;18.08;2.38;;;8.60;99.90;;;8.83;73.77;100101.97;5021438;28;20041;-84
2023/11/24 04:36:41;;;;;;;14.35;2.33;;;8.60;99.90;;;8.86;73.52;100104.25;5003151;28;20046;-84
2023/11/24 04:39:08;;;;;;;14.38;2.30;;;8.60;99.90;;;8.88;73.50;100099.53;4986512;28;20109;-84
2023/11/24 04:41:38;;;;;;;16.55;2.40;;;8.70;99.90;;;8.80;72.53;100086.47;5021103;28;20072;-84
2023/11/24 04:44:06;;;;;;;13.18;2.88;;;8.60;99.90;;;8.68;72.58;100086.28;5003518;28;20077;-84
2023/11/24 04:46:34;;;;;;;15.20;1.88;;;8.60;99.90;;;8.72;72.82;100092.00;5003706;28;20049;-84
2023/11/24 04:49:03;;;;;;;10.38;2.38;;;8.60;99.90;;;8.71;72.98;100085.06;4986622;28;20053;-84
2023/11/24 04:51:31;;;;;;;13.77;2.30;;;8.60;99.90;;;8.72;72.82;100090.16;5021646;28;20061;-84
2023/11/24 04:54:00;;;;;;;13.80;2.25;;;8.60;99.90;;;8.65;73.09;100084.06;5020496;28;20494;-84
2023/11/24 04:56:27;;;;;;;13.38;2.05;;;8.60;99.90;;;8.73;73.51;100090.97;5020979;28;20045;-84
2023/11/24 04:58:56;;;;;;;11.68;1.92;;;8.60;99.90;;;8.76;73.52;100083.41;5021485;28;20042;-84
2023/11/24 05:01:24;;;;;;;10.02;1.92;;;8.60;99.90;;;8.74;72.89;100085.47;5003978;28;20045;-84
2023/11/24 05:03:53;;;;;;;9.50;1.73;;;8.60;99.90;;;8.70;73.06;100089.56;4987400;28;20497;-84
2023/11/24 05:06:22;;;;;;;9.35;1.80;;;8.50;99.90;;;8.69;73.18;100092.44;5004117;28;20129;-84
2023/11/24 05:08:51;;;;;;;11.88;2.40;;;8.50;99.90;;;8.61;73.78;100104.09;5020655;28;20474;-84
2023/11/24 05:11:18;;;;;;;12.25;1.92;;;8.50;99.90;;;8.68;74.51;100094.25;5004047;28;20081;-84
2023/11/24 05:13:48;;;;;;;9.70;2.08;;;8.50;99.90;;;8.62;74.01;100095.09;5003285;28;20049;-84
2023/11/24 05:16:17;;;;;;;14.88;2.40;;;8.40;99.90;;;8.56;73.52;100103.91;4986957;28;20057;-84
2023/11/24 05:18:45;;;;;;;12.95;2.53;;;8.40;99.90;;;8.51;74.38;100091.22;4987167;28;20042;-84
2023/11/24 05:21:12;;;;;;;14.85;2.53;;;8.30;99.90;;;8.55;73.94;100085.50;5021187;28;20117;-84
2023/11/24 05:23:41;;;;;;;13.02;2.88;;;8.30;99.90;;;8.56;73.41;100082.63;5002776;28;20521;-84
2023/11/24 05:26:09;;;;;;;12.15;2.83;;;8.40;99.90;;;8.58;73.53;100091.22;5020998;28;20096;-84
2023/11/24 05:28:37;;;;;;;11.10;2.33;;;8.40;99.90;;;8.63;73.58;100085.28;4987124;28;20489;-84
2023/11/24 05:31:09;;;;;;;11.32;2.50;;;8.40;99.90;;;8.60;73.32;100075.88;5003126;28;20042;-84
2023/11/24 05:33:39;;;;;;;8.43;2.30;;;8.40;99.90;;;8.63;73.43;100078.09;5020755;28;20544;-84
2023/11/24 05:36:09;;;;;;;7.53;1.98;;;8.40;99.90;;;8.62;73.43;100079.16;5002970;28;20049;-84
2023/11/24 05:38:38;;;;;;;9.43;1.92;;;8.40;99.90;;;8.59;73.28;100079.56;4986429;28;20069;-84
2023/11/24 05:41:06;;;;;;;12.13;2.17;;;8.30;99.90;;;8.62;73.72;100076.47;5002687;28;20144;-84
2023/11/24 05:43:34;;;;;;;10.68;2.25;;;8.40;99.90;;;8.65;73.81;100073.41;5002569;28;20054;-84
2023/11/24 05:46:02;;;;;;;11.70;2.47;;;8.40;99.90;;;8.67;73.89;100067.88;5020472;28;20042;-84
2023/11/24 05:48:29;;;;;;;7.78;2.25;;;8.40;99.90;;;8.62;72.86;100063.19;5002214;28;20064;-84
2023/11/24 05:50:58;;;;;;;12.55;2.38;;;8.40;99.90;;;8.42;73.17;100067.75;5002971;28;20052;-84
2023/11/24 05:53:27;;;;;;;10.10;2.50;;;8.30;99.90;;;8.44;73.68;100066.53;5002744;28;20053;-84
2023/11/24 05:55:55;;;;;;;14.18;2.45;;;8.30;99.90;;;8.46;73.23;100061.00;5002536;28;20042;-84
2023/11/24 05:58:23;;;;;;;9.93;2.25;;;8.20;99.90;;;8.46;73.05;100061.81;5020529;28;20046;-84
2023/11/24 06:00:51;;;;;;;8.73;2.35;;;8.20;99.90;;;8.48;73.64;100057.09;5002461;28;20045;-84
2023/11/24 06:03:19;;;;;;;10.95;2.17;;;8.20;99.90;;;8.51;73.60;100055.88;5006246;28;20477;-84
2023/11/24 06:05:47;;;;;;;13.63;2.78;;;8.30;99.90;;;8.57;73.44;100064.84;5024813;28;20095;-84
2023/11/24 06:08:16;;;;;;;13.15;2.53;;;8.30;99.90;;;8.56;73.54;100048.09;5007624;28;20108;-84
2023/11/24 06:10:47;;;;;;;10.60;2.13;;;8.30;99.90;;;8.55;73.27;100062.41;5008034;28;20505;-84
2023/11/24 06:13:15;;;;;;;16.37;2.33;;;8.30;99.90;;;8.55;73.24;100059.75;4991227;28;20505;-84
2023/11/24 06:15:42;;;;;;;9.95;2.20;;;8.30;99.90;;;8.45;72.68;100054.84;5024450;28;20042;-84
2023/11/24 06:18:10;;;;;;;11.98;2.67;;;8.30;99.90;;;8.34;72.94;100049.31;5024432;28;20049;-84
2023/11/24 06:20:38;;;;;;;15.20;1.90;;;8.20;99.90;;;8.28;73.95;100050.97;5007539;28;20048;-84
2023/11/24 06:23:06;;;;;;;10.27;2.42;;;8.10;99.90;;;8.33;74.07;100050.34;5006208;28;20408;-84
2023/11/24 06:25:35;;;;;;;10.15;1.80;;;8.20;99.90;;;8.37;73.75;100043.63;5006345;28;20104;-84
2023/11/24 06:28:02;;;;;;;7.35;1.50;;;8.20;99.90;;;8.32;74.03;100030.13;5022887;28;20042;-85
2023/11/24 06:30:30;;;;;;;9.27;1.73;;;8.20;99.90;;;8.30;73.87;100042.81;4988155;28;20053;-84
2023/11/24 06:32:57;;;;;;;11.15;1.98;;;8.20;99.90;;;8.37;74.51;100028.50;5019976;28;20068;-86
2023/11/24 06:35:24;;;;;;;10.85;2.10;;;8.20;99.90;;;8.37;74.40;100033.00;5021078;28;20038;-84
2023/11/24 06:37:52;;;;;;;11.02;2.28;;;8.20;99.90;;;8.26;73.96;100027.28;5003602;28;20069;-84
2023/11/24 06:40:19;;;;;;;15.20;2.13;;;8.10;99.90;;;8.30;74.29;100025.03;5003784;28;20042;-84
2023/11/24 06:42:49;;;;;;;12.23;2.20;;;8.30;99.90;;;8.31;73.90;100015.22;5001302;28;20133;-84
2023/11/24 06:45:16;;;;;;;9.13;1.95;;;8.10;99.90;;;8.27;74.26;100014.78;4986513;28;20108;-84
2023/11/24 06:47:44;;;;;;;8.52;2.22;;;8.10;99.90;;;8.26;74.20;100015.81;4986251;28;20042;-84
2023/11/24 06:50:12;;;;;;;12.63;2.10;;;8.30;99.90;;;8.15;74.14;100030.56;5001013;28;20402;-86
2023/11/24 06:52:40;;;;;;;10.68;1.80;;;8.00;99.90;;;8.17;75.33;100044.44;4952031;28;20038;-86
2023/11/24 06:55:10;;;;;;;12.48;2.05;;;8.00;99.90;;;8.07;75.72;100052.00;5017442;28;20469;-85
2023/11/24 06:57:38;;;;;;;14.65;2.30;;;7.90;99.90;;;8.16;75.73;100063.25;4999313;28;20100;-86
2023/11/24 07:00:16;;;;;;;19.02;2.20;;;8.00;99.90;;;8.09;75.65;100043.81;4987684;28;20502;-84
2023/11/24 07:02:43;;;;;;;15.25;2.40;;;8.00;99.90;;;7.94;75.07;100046.69;5002929;28;20050;-84
2023/11/24 07:05:11;;;;;;;13.85;2.00;;;7.90;99.90;;;7.86;76.29;100036.28;5022181;28;20056;-83
2023/11/24 07:07:44;;;;;;;14.10;1.98;;;7.90;99.90;;;7.95;76.50;100037.69;5007442;28;20050;-81
2023/11/24 07:10:13;;;;;;;9.80;2.03;;;7.90;99.90;;;7.98;76.57;100046.09;5007383;28;20081;-83
2023/11/24 07:12:42;;;;;;;11.63;1.67;;;7.90;99.90;;;7.80;76.30;100059.13;5007918;28;20073;-83
2023/11/24 07:15:16;;;;;;;9.75;2.65;;;7.80;99.90;;;7.88;76.61;100044.84;5024088;28;20417;-86
2023/11/24 07:17:44;;;;;;;12.60;2.10;;;7.80;99.90;;;7.92;76.74;100051.41;5007256;28;20573;-84
2023/11/24 07:20:12;;;;;;;15.13;2.20;;;7.80;99.90;;;7.97;76.82;100039.13;5008301;28;20046;-83
2023/11/24 07:22:41;;;;;;;11.75;2.25;;;7.80;99.90;;;7.97;76.37;100027.72;5018909;28;20060;-83
2023/11/24 07:25:10;;;;;;;12.07;2.15;;;7.80;99.90;;;7.97;75.87;100027.72;5025795;28;20409;-83
2023/11/24 07:27:39;;;;;;;11.13;2.13;;;7.80;99.90;;;8.04;76.02;100015.22;5025718;28;20046;-83
2023/11/24 07:30:12;;;;;;;11.23;2.05;;;7.80;99.90;;;8.03;75.58;100020.75;4981778;28;20054;-83
2023/11/24 07:32:42;;;;;;;9.80;2.08;;;7.90;99.90;;;7.99;75.51;100023.00;5009561;28;20057;-83
2023/11/24 07:35:10;;;;;;;10.55;2.22;;;7.80;99.90;;;7.98;75.82;100026.69;5026267;28;20054;-83
2023/11/24 07:37:38;;;;;;;13.80;2.20;;;7.80;99.90;;;7.77;76.05;100019.75;5022902;28;20073;-83
2023/11/24 07:40:13;;;;;;;8.60;1.95;;;7.70;99.90;;;7.87;76.32;100033.44;4988438;28;20060;-83
2023/11/24 07:42:43;;;;;;;12.75;2.20;;;7.80;99.90;;;7.94;76.52;100036.06;5005102;28;20042;-83
2023/11/24 07:45:15;;;;;;;9.75;2.10;;;7.80;99.90;;;7.92;76.38;100032.81;5017372;28;20053;-83
2023/11/24 07:47:44;;;;;;;16.00;2.50;;;7.80;99.90;;;7.88;75.88;100028.94;5007081;28;20077;-83
2023/11/24 07:50:11;;;;;;;10.57;2.35;;;7.70;99.90;;;7.82;75.97;100019.94;5000013;28;20046;-83
2023/11/24 07:52:40;;;;;;;11.27;2.00;;;7.80;99.90;;;7.86;76.44;100028.31;5008235;28;20050;-83
2023/11/24 07:55:09;;;;;;;14.45;2.88;;;7.80;99.90;;;7.95;76.65;100041.19;4978256;28;20046;-83
2023/11/24 07:57:39;;;;;;;22.77;4.70;;;7.80;99.90;;;7.95;76.61;100038.53;4980924;28;20070;-83
2023/11/24 08:00:12;;;;;;;17.98;3.03;;;7.80;99.90;;;7.93;77.00;100031.78;5012837;28;20428;-83
2023/11/24 08:02:44;;;;;;;10.65;2.80;;;7.80;99.90;;;7.81;76.39;100030.75;5006530;28;20104;-83
2023/11/24 08:05:13;;;;;;;14.30;2.63;;;7.90;99.90;;;7.92;77.14;100027.50;5007759;28;20046;-83
2023/11/24 08:07:43;;;;;;;12.48;2.83;;;7.80;99.90;;;8.02;76.82;100019.13;5008196;28;20069;-83
2023/11/24 08:10:12;;;;;;;17.23;2.35;;;7.90;99.90;;;7.98;76.43;100005.44;4991672;28;20045;-83
2023/11/24 08:12:40;;;;;;;10.43;1.88;;;7.90;99.90;;;7.96;76.13;100000.34;5006266;28;20489;-83
2023/11/24 08:15:09;;;;;;;11.73;2.30;;;7.90;99.90;;;7.87;76.39;100003.41;4988695;28;20527;-83
2023/11/24 08:17:37;;;;;;;6.65;2.40;;;7.80;99.90;;;7.86;76.93;99999.13;5002699;28;20046;-84
2023/11/24 08:20:10;;;;;;;10.95;2.25;;;7.80;99.90;;;7.89;77.02;99986.22;4990195;28;20050;-83
2023/11/24 08:22:39;;;;;;;12.25;3.28;;;7.80;99.90;;;7.96;77.06;99986.25;5020872;28;20046;-83
2023/11/24 08:25:10;;;;;;;13.35;2.63;;;7.90;99.90;;;8.01;77.07;99986.44;4998771;28;20457;-83
2023/11/24 08:27:39;;;;;;;13.35;2.70;;;7.80;99.90;;;8.00;76.94;99984.78;4973449;28;20057;-83
2023/11/24 08:30:11;;;;;;;13.63;2.70;;;7.90;99.90;;;8.07;77.06;99982.16;5005036;28;20042;-83
2023/11/24 08:32:40;;;;;;;12.68;3.10;;;7.90;99.90;;;8.10;76.79;99982.56;5004180;28;20046;-83
2023/11/24 08:35:10;;;;;;;10.50;2.30;;;8.00;99.90;;;8.07;75.94;99977.66;4997192;28;20053;-83
2023/11/24 08:37:37;;;;;;;11.65;2.40;;;7.90;99.90;;;8.04;76.69;99980.69;4988758;28;20056;-83
2023/11/24 08:40:10;;;;;;;11.48;2.83;;;7.90;99.90;;;8.09;76.48;99972.94;5005998;28;20046;-83
2023/11/24 08:42:38;;;;;;;15.85;2.22;;;8.00;99.90;;;8.02;76.63;99969.47;5007772;28;20045;-83
2023/11/24 08:45:07;;;;;;;11.45;1.77;;;8.00;99.90;;;7.95;76.68;99980.13;5005460;28;20045;-83
2023/11/24 08:47:35;;;;;;;12.05;2.47;;;7.90;99.90;;;7.97;76.57;99970.09;5002642;28;20049;-83
2023/11/24 08:50:03;;;;;;;9.07;2.50;;;7.90;99.90;;;7.91;76.53;99970.94;5020821;28;20449;-83
2023/11/24 08:52:32;;;;;;;9.30;2.25;;;7.90;99.90;;;7.91;76.73;99978.09;5002149;28;20042;-83
2023/11/24 08:55:00;;;;;;;8.65;1.83;;;7.80;99.90;;;7.94;76.83;99970.50;5003226;28;20072;-83
2023/11/24 08:57:28;;;;;;;9.80;2.22;;;7.90;99.90;;;7.90;76.00;99971.13;4987597;28;20048;-83
2023/11/24 08:59:57;;;;;;;10.50;2.00;;;7.80;99.90;;;7.73;77.34;99966.25;4989567;28;20041;-83
2023/11/24 09:02:26;;;;;;;13.45;2.20;;;7.70;99.90;;;7.81;76.13;99959.06;5022138;28;20528;-83
2023/11/24 09:04:54;;;;;;;13.68;2.25;;;7.70;99.90;;;7.75;76.26;99966.03;5004461;28;20125;-83
2023/11/24 09:07:22;;;;;;;9.73;2.58;;;7.70;99.90;;;7.89;76.46;99965.00;4992555;28;20034;-84
2023/11/24 09:09:52;;;;;;;7.65;2.00;;;7.80;99.90;;;7.97;76.40;99950.69;5003470;28;20066;-84
2023/11/24 09:12:19;;;;;;;8.10;1.92;;;7.90;99.90;;;7.90;76.45;99949.88;5001356;28;20054;-83
2023/11/24 09:14:47;;;;;;;8.85;2.30;;;7.80;99.90;;;8.02;76.86;99945.59;4998827;28;20103;-84
2023/11/24 09:17:15;;;;;;;10.00;2.30;;;7.90;99.90;;;7.97;76.32;99938.25;4994524;28;20049;-84
2023/11/24 09:19:45;;;;;;;9.52;2.13;;;7.90;99.90;;;7.92;75.56;99931.91;4968012;28;20053;-84
2023/11/24 09:22:14;;;;;;;12.80;2.33;;;7.90;99.90;;;7.94;75.41;99933.34;5013867;28;20060;-83
2023/11/24 09:24:41;;;;;;;14.48;2.50;;;7.90;99.90;;;7.99;75.69;99941.50;5021348;28;20065;-84
2023/11/24 09:27:10;;;;;;;8.48;1.42;;;7.90;99.90;;;7.87;75.17;99931.72;5004165;28;20054;-84
2023/11/24 09:29:38;;;;;;;10.15;2.30;;;7.80;99.90;;;7.92;75.29;99929.28;4983980;28;20054;-86
2023/11/24 09:32:07;;;;;;;9.18;2.08;;;7.90;99.90;;;7.98;75.23;99925.78;4983595;28;20065;-85
2023/11/24 09:34:35;;;;;;;10.93;2.17;;;7.90;99.90;;;7.98;74.86;99928.44;4987246;28;20072;-85
2023/11/24 09:37:02;;;;;;;7.70;2.00;;;7.90;99.90;;;8.04;74.84;99927.59;5003228;28;20113;-85
2023/11/24 09:39:30;;;;;;;7.80;2.00;;;8.00;99.90;;;8.01;74.99;99922.72;5002386;28;20520;-85
2023/11/24 09:41:58;;;;;;;8.18;1.90;;;8.00;99.90;;;7.95;73.87;99924.38;5002159;28;20056;-85
2023/11/24 09:44:27;;;;;;;7.65;1.52;;;7.90;99.90;;;7.85;73.43;99915.97;4986251;28;20482;-86
2023/11/24 09:46:57;;;;;;;8.25;1.50;;;7.80;99.90;;;7.93;74.44;99904.34;4983099;28;20057;-87
2023/11/24 09:49:25;;;;;;;7.50;1.90;;;7.80;99.90;;;7.95;74.26;99910.25;4983666;28;20050;-85
2023/11/24 09:51:55;;;;;;;5.78;1.73;;;7.90;99.90;;;7.96;74.24;99906.59;5010440;28;20079;-86
2023/11/24 09:54:26;;;;;;;7.72;1.73;;;7.90;99.90;;;7.99;74.37;99914.13;5026222;28;20049;-84
2023/11/24 09:56:56;;;;;;;8.65;1.95;;;7.90;99.90;;;7.85;73.14;99904.56;5008631;28;20041;-84
2023/11/24 09:59:27;;;;;;;8.40;2.13;;;7.80;99.90;;;7.71;73.21;99923.19;5025248;28;20042;-83
2023/11/24 10:01:59;;;;;;;8.97;2.33;;;7.70;99.90;;;7.73;73.93;99913.16;5024350;28;20117;-85
2023/11/24 10:04:27;;;;;;;8.77;2.28;;;7.70;99.90;;;7.74;74.37;99917.44;5007349;28;20355;-84
2023/11/24 10:06:56;;;;;;;8.40;2.25;;;7.60;99.90;;;7.85;74.85;99925.78;5026068;28;20034;-82
2023/11/24 10:09:26;;;;;;;7.78;1.80;;;7.80;99.90;;;7.85;74.33;99918.63;5006496;28;20050;-83
2023/11/24 10:11:58;;;;;;;8.50;2.10;;;7.80;99.90;;;7.84;75.16;99916.19;5027114;28;20117;-83
2023/11/24 10:14:28;;;;;;;8.07;1.80;;;7.70;99.90;;;7.89;74.99;99911.09;5028427;28;20532;-83
2023/11/24 10:16:56;;;;;;;8.95;1.95;;;7.80;99.90;;;7.89;75.33;99906.59;5028159;28;20038;-83
2023/11/24 10:19:27;;;;;;;8.20;1.55;;;7.80;99.90;;;7.85;75.21;99912.53;5026876;28;20072;-83
2023/11/24 10:21:55;;;;;;;;;;;7.80;99.90;;;7.75;74.82;99910.28;4993694;28;20057;-83
2023/11/24 10:24:26;;;;;;;9.05;1.48;;;7.70;99.90;;;7.63;74.91;99899.50;5009626;28;19928;-83
2023/11/24 10:26:53;;;;;;;6.63;1.65;;;7.70;99.90;;;7.61;74.70;99912.16;5026598;28;20398;-83
2023/11/24 10:29:24;;;;;;;7.18;1.30;;;7.60;99.90;;;7.67;74.95;99905.22;5026508;28;20509;-83